sensor_id;sensor_type;location;lat;lon;timestamp;pressure;altitude;pressure_sealevel;temperature;humidity
11682;BME280;5897;42.640;23.310;2023-04-02T00:02:24;93014.66;;;9.06;65.72
11682;BME280;5897;42.640;23.310;2023-04-02T00:05:25;93022.97;;;8.99;65.82
11682;BME280;5897;42.640;23.310;2023-04-02T00:07:56;93005.63;;;9.00;65.63
11682;BME280;5897;42.640;23.310;2023-04-02T00:10:26;93020.03;;;9.06;65.74
11682;BME280;5897;42.640;23.310;2023-04-02T00:13:02;93026.75;;;9.02;65.17
11682;BME280;5897;42.640;23.310;2023-04-02T00:15:30;93020.53;;;8.92;64.80
11682;BME280;5897;42.640;23.310;2023-04-02T00:17:57;93012.50;;;9.01;64.24
11682;BME280;5897;42.640;23.310;2023-04-02T00:20:26;93008.97;;;9.04;64.87
11682;BME280;5897;42.640;23.310;2023-04-02T00:22:54;93024.81;;;9.02;64.93
11682;BME280;5897;42.640;23.310;2023-04-02T00:25:21;93025.19;;;9.13;65.44
11682;BME280;5897;42.640;23.310;2023-04-02T00:27:51;93004.63;;;9.07;63.95
11682;BME280;5897;42.640;23.310;2023-04-02T00:30:18;92993.72;;;9.10;62.83
11682;BME280;5897;42.640;23.310;2023-04-02T00:32:45;93008.66;;;9.24;61.75
11682;BME280;5897;42.640;23.310;2023-04-02T00:35:17;92988.28;;;9.23;61.83
11682;BME280;5897;42.640;23.310;2023-04-02T00:37:46;92993.72;;;9.10;63.71
11682;BME280;5897;42.640;23.310;2023-04-02T00:40:18;92984.44;;;9.11;63.37
11682;BME280;5897;42.640;23.310;2023-04-02T00:42:45;92990.34;;;9.19;63.31
11682;BME280;5897;42.640;23.310;2023-04-02T00:45:20;93001.88;;;9.19;63.28
11682;BME280;5897;42.640;23.310;2023-04-02T00:47:48;92967.22;;;8.87;64.28
11682;BME280;5897;42.640;23.310;2023-04-02T00:50:21;92993.72;;;9.10;63.41
11682;BME280;5897;42.640;23.310;2023-04-02T00:52:52;92982.88;;;9.01;63.81
11682;BME280;5897;42.640;23.310;2023-04-02T00:55:22;92992.53;;;9.11;62.97
11682;BME280;5897;42.640;23.310;2023-04-02T00:57:50;92986.72;;;9.13;62.35
11682;BME280;5897;42.640;23.310;2023-04-02T01:00:22;93007.59;;;9.21;62.88
11682;BME280;5897;42.640;23.310;2023-04-02T01:03:28;93003.69;;;9.22;62.79
11682;BME280;5897;42.640;23.310;2023-04-02T01:06:01;92999.50;;;9.21;61.83
11682;BME280;5897;42.640;23.310;2023-04-02T01:08:51;92997.31;;;9.29;61.35
11682;BME280;5897;42.640;23.310;2023-04-02T01:11:37;93005.69;;;9.31;61.03
11682;BME280;5897;42.640;23.310;2023-04-02T01:14:16;92981.41;;;9.22;61.50
11682;BME280;5897;42.640;23.310;2023-04-02T01:16:50;93002.25;;;9.30;61.34
11682;BME280;5897;42.640;23.310;2023-04-02T01:19:48;93007.66;;;9.30;61.72
11682;BME280;5897;42.640;23.310;2023-04-02T01:22:25;93002.81;;;9.25;62.31
11682;BME280;5897;42.640;23.310;2023-04-02T01:24:57;92999.66;;;9.27;61.83
11682;BME280;5897;42.640;23.310;2023-04-02T01:27:28;93013.16;;;9.27;62.15
11682;BME280;5897;42.640;23.310;2023-04-02T01:30:00;93024.69;;;9.27;62.48
11682;BME280;5897;42.640;23.310;2023-04-02T01:32:30;93022.56;;;9.22;62.33
11682;BME280;5897;42.640;23.310;2023-04-02T01:34:57;93016.91;;;9.29;61.81
11682;BME280;5897;42.640;23.310;2023-04-02T01:37:34;93022.88;;;9.24;62.07
11682;BME280;5897;42.640;23.310;2023-04-02T01:40:26;93009.41;;;9.24;62.06
11682;BME280;5897;42.640;23.310;2023-04-02T01:43:04;93016.91;;;9.29;61.71
11682;BME280;5897;42.640;23.310;2023-04-02T01:45:33;93010.00;;;9.28;61.84
11682;BME280;5897;42.640;23.310;2023-04-02T01:48:02;92997.09;;;9.23;62.10
11682;BME280;5897;42.640;23.310;2023-04-02T01:50:34;93011.97;;;9.28;62.28
11682;BME280;5897;42.640;23.310;2023-04-02T01:53:04;93006.13;;;9.29;61.99
11682;BME280;5897;42.640;23.310;2023-04-02T01:55:39;93020.78;;;9.28;62.36
11682;BME280;5897;42.640;23.310;2023-04-02T01:58:08;92995.72;;;9.19;62.60
11682;BME280;5897;42.640;23.310;2023-04-02T02:00:42;92999.22;;;9.28;62.70
11682;BME280;5897;42.640;23.310;2023-04-02T02:03:11;92996.88;;;9.30;62.19
11682;BME280;5897;42.640;23.310;2023-04-02T02:05:39;92998.25;;;9.35;61.60
11682;BME280;5897;42.640;23.310;2023-04-02T02:08:14;93002.25;;;9.30;61.86
11682;BME280;5897;42.640;23.310;2023-04-02T02:10:48;93005.88;;;9.36;61.52
11682;BME280;5897;42.640;23.310;2023-04-02T02:13:15;92994.47;;;9.32;61.70
11682;BME280;5897;42.640;23.310;2023-04-02T02:15:43;93005.19;;;9.45;61.23
11682;BME280;5897;42.640;23.310;2023-04-02T02:18:12;93011.03;;;9.43;60.99
11682;BME280;5897;42.640;23.310;2023-04-02T02:20:39;93011.16;;;9.40;61.33
11682;BME280;5897;42.640;23.310;2023-04-02T02:23:08;93015.78;;;9.39;61.04
11682;BME280;5897;42.640;23.310;2023-04-02T02:25:37;93018.34;;;9.43;61.44
11682;BME280;5897;42.640;23.310;2023-04-02T02:28:06;93021.16;;;9.39;60.29
11682;BME280;5897;42.640;23.310;2023-04-02T02:30:36;93019.28;;;9.49;59.68
11682;BME280;5897;42.640;23.310;2023-04-02T02:33:10;93027.13;;;9.56;59.49
11682;BME280;5897;42.640;23.310;2023-04-02T02:35:43;93022.44;;;9.47;59.98
11682;BME280;5897;42.640;23.310;2023-04-02T02:38:40;93033.09;;;9.51;59.29
11682;BME280;5897;42.640;23.310;2023-04-02T02:41:16;93014.00;;;9.45;60.09
11682;BME280;5897;42.640;23.310;2023-04-02T02:43:49;93008.19;;;9.47;59.38
11682;BME280;5897;42.640;23.310;2023-04-02T02:46:19;93018.84;;;9.50;59.11
11682;BME280;5897;42.640;23.310;2023-04-02T02:48:51;93002.50;;;9.45;58.78
11682;BME280;5897;42.640;23.310;2023-04-02T02:51:23;93019.41;;;9.45;59.15
11682;BME280;5897;42.640;23.310;2023-04-02T02:53:56;93010.47;;;9.48;59.30
11682;BME280;5897;42.640;23.310;2023-04-02T02:56:27;93012.81;;;9.46;58.81
11682;BME280;5897;42.640;23.310;2023-04-02T02:58:55;93004.44;;;9.44;59.61
11682;BME280;5897;42.640;23.310;2023-04-02T03:01:22;93013.88;;;9.49;58.25
11682;BME280;5897;42.640;23.310;2023-04-02T03:03:53;93015.28;;;9.53;57.98
11682;BME280;5897;42.640;23.310;2023-04-02T03:06:20;93015.84;;;9.48;58.58
11682;BME280;5897;42.640;23.310;2023-04-02T03:08:51;93006.13;;;9.51;58.39
11682;BME280;5897;42.640;23.310;2023-04-02T03:11:25;93014.22;;;9.51;58.90
11682;BME280;5897;42.640;23.310;2023-04-02T03:13:56;93012.88;;;9.55;58.18
11682;BME280;5897;42.640;23.310;2023-04-02T03:16:29;93012.25;;;9.51;58.95
11682;BME280;5897;42.640;23.310;2023-04-02T03:19:01;93009.00;;;9.56;59.07
11682;BME280;5897;42.640;23.310;2023-04-02T03:21:35;93022.44;;;9.47;60.18
11682;BME280;5897;42.640;23.310;2023-04-02T03:24:10;93016.78;;;9.54;60.15
11682;BME280;5897;42.640;23.310;2023-04-02T03:26:40;93032.31;;;9.50;60.38
11682;BME280;5897;42.640;23.310;2023-04-02T03:29:14;93030.81;;;9.49;60.40
11682;BME280;5897;42.640;23.310;2023-04-02T03:31:44;93029.31;;;9.48;60.18
11682;BME280;5897;42.640;23.310;2023-04-02T03:34:17;93033.78;;;9.42;61.06
11682;BME280;5897;42.640;23.310;2023-04-02T03:36:51;93032.44;;;9.47;61.04
11682;BME280;5897;42.640;23.310;2023-04-02T03:39:25;93029.88;;;9.43;61.61
11682;BME280;5897;42.640;23.310;2023-04-02T03:41:57;93036.91;;;9.41;61.50
11682;BME280;5897;42.640;23.310;2023-04-02T03:44:28;93019.84;;;9.44;61.08
11682;BME280;5897;42.640;23.310;2023-04-02T03:47:00;93032.50;;;9.34;62.04
11682;BME280;5897;42.640;23.310;2023-04-02T03:49:35;93040.47;;;9.38;61.41
11682;BME280;5897;42.640;23.310;2023-04-02T03:52:08;93035.22;;;9.34;61.52
11682;BME280;5897;42.640;23.310;2023-04-02T03:54:36;93034.22;;;9.41;61.28
11682;BME280;5897;42.640;23.310;2023-04-02T03:57:04;93037.16;;;9.34;61.43
11682;BME280;5897;42.640;23.310;2023-04-02T03:59:38;93034.66;;;9.39;61.60
11682;BME280;5897;42.640;23.310;2023-04-02T04:02:15;93033.97;;;9.26;61.49
11682;BME280;5897;42.640;23.310;2023-04-02T04:04:47;93028.75;;;9.32;61.37
11682;BME280;5897;42.640;23.310;2023-04-02T04:07:20;93033.72;;;9.33;60.94
11682;BME280;5897;42.640;23.310;2023-04-02T04:09:53;93044.75;;;9.26;61.31
11682;BME280;5897;42.640;23.310;2023-04-02T04:12:26;93028.38;;;9.21;61.58
11682;BME280;5897;42.640;23.310;2023-04-02T04:14:58;93028.13;;;9.06;61.75
11682;BME280;5897;42.640;23.310;2023-04-02T04:17:31;93039.09;;;9.12;61.66
11682;BME280;5897;42.640;23.310;2023-04-02T04:20:13;93045.75;;;9.20;61.26
11682;BME280;5897;42.640;23.310;2023-04-02T04:22:46;93030.59;;;9.13;61.46
11682;BME280;5897;42.640;23.310;2023-04-02T04:25:20;93049.50;;;9.22;61.34
11682;BME280;5897;42.640;23.310;2023-04-02T04:27:55;93047.13;;;9.24;61.32
11682;BME280;5897;42.640;23.310;2023-04-02T04:30:38;93051.75;;;9.24;61.29
11682;BME280;5897;42.640;23.310;2023-04-02T04:33:13;93061.16;;;9.19;62.00
11682;BME280;5897;42.640;23.310;2023-04-02T04:35:51;93053.09;;;9.19;62.64
11682;BME280;5897;42.640;23.310;2023-04-02T04:38:27;93061.47;;;9.21;65.92
11682;BME280;5897;42.640;23.310;2023-04-02T04:41:00;93063.78;;;9.10;68.56
11682;BME280;5897;42.640;23.310;2023-04-02T04:43:37;93072.16;;;9.12;69.92
11682;BME280;5897;42.640;23.310;2023-04-02T04:46:09;93056.50;;;8.98;71.83
11682;BME280;5897;42.640;23.310;2023-04-02T04:48:45;93069.16;;;8.76;73.15
11682;BME280;5897;42.640;23.310;2023-04-02T04:51:20;93067.56;;;8.66;74.72
11682;BME280;5897;42.640;23.310;2023-04-02T04:53:50;93065.75;;;8.63;75.07
11682;BME280;5897;42.640;23.310;2023-04-02T04:56:20;93075.03;;;8.50;76.39
11682;BME280;5897;42.640;23.310;2023-04-02T04:58:51;93072.53;;;8.55;76.92
11682;BME280;5897;42.640;23.310;2023-04-02T05:01:23;93063.31;;;8.56;77.08
11682;BME280;5897;42.640;23.310;2023-04-02T05:03:56;93070.81;;;8.61;77.23
11682;BME280;5897;42.640;23.310;2023-04-02T05:06:35;93077.19;;;8.55;77.37
11682;BME280;5897;42.640;23.310;2023-04-02T05:09:10;93070.41;;;8.50;77.91
11682;BME280;5897;42.640;23.310;2023-04-02T05:11:41;93054.72;;;8.36;78.27
11682;BME280;5897;42.640;23.310;2023-04-02T05:14:19;93071.38;;;8.44;78.42
11682;BME280;5897;42.640;23.310;2023-04-02T05:16:51;93070.41;;;8.50;78.75
11682;BME280;5897;42.640;23.310;2023-04-02T05:19:22;93070.91;;;8.58;78.27
11682;BME280;5897;42.640;23.310;2023-04-02T05:21:57;93068.84;;;8.74;76.90
11682;BME280;5897;42.640;23.310;2023-04-02T05:24:46;93088.31;;;8.78;76.66
11682;BME280;5897;42.640;23.310;2023-04-02T05:27:22;93078.97;;;8.70;77.42
11682;BME280;5897;42.640;23.310;2023-04-02T05:29:55;93081.00;;;8.79;76.96
11682;BME280;5897;42.640;23.310;2023-04-02T05:32:27;93083.06;;;8.75;76.48
11682;BME280;5897;42.640;23.310;2023-04-02T05:34:56;93079.97;;;8.98;75.67
11682;BME280;5897;42.640;23.310;2023-04-02T05:37:28;93087.94;;;9.01;76.04
11682;BME280;5897;42.640;23.310;2023-04-02T05:39:57;93083.16;;;8.84;76.21
11682;BME280;5897;42.640;23.310;2023-04-02T05:42:27;93096.47;;;9.00;76.05
11682;BME280;5897;42.640;23.310;2023-04-02T05:45:03;93088.72;;;8.89;76.63
11682;BME280;5897;42.640;23.310;2023-04-02T05:47:34;93097.59;;;9.11;76.00
11682;BME280;5897;42.640;23.310;2023-04-02T05:50:19;93090.41;;;9.08;76.28
11682;BME280;5897;42.640;23.310;2023-04-02T05:52:52;93099.84;;;9.25;75.56
11682;BME280;5897;42.640;23.310;2023-04-02T05:55:31;93101.28;;;9.39;75.94
11682;BME280;5897;42.640;23.310;2023-04-02T05:58:03;93101.59;;;9.41;75.17
11682;BME280;5897;42.640;23.310;2023-04-02T06:00:48;93082.56;;;9.57;74.79
11682;BME280;5897;42.640;23.310;2023-04-02T06:03:23;93102.78;;;9.83;73.65
11682;BME280;5897;42.640;23.310;2023-04-02T06:05:52;93107.28;;;10.07;72.89
11682;BME280;5897;42.640;23.310;2023-04-02T06:08:28;93112.75;;;10.16;72.30
11682;BME280;5897;42.640;23.310;2023-04-02T06:11:00;93115.19;;;10.23;72.21
11682;BME280;5897;42.640;23.310;2023-04-02T06:13:30;93119.69;;;10.26;72.07
11682;BME280;5897;42.640;23.310;2023-04-02T06:15:57;93114.06;;;10.42;71.67
11682;BME280;5897;42.640;23.310;2023-04-02T06:18:25;93113.81;;;10.58;70.68
11682;BME280;5897;42.640;23.310;2023-04-02T06:20:53;93115.63;;;10.61;70.39
11682;BME280;5897;42.640;23.310;2023-04-02T06:23:24;93110.25;;;10.70;70.21
11682;BME280;5897;42.640;23.310;2023-04-02T06:25:59;93115.25;;;10.81;69.58
11682;BME280;5897;42.640;23.310;2023-04-02T06:28:32;93116.16;;;10.87;69.02
11682;BME280;5897;42.640;23.310;2023-04-02T06:31:06;93111.47;;;10.78;69.45
11682;BME280;5897;42.640;23.310;2023-04-02T06:33:33;93106.44;;;11.16;68.04
11682;BME280;5897;42.640;23.310;2023-04-02T06:36:03;93107.03;;;11.20;67.88
11682;BME280;5897;42.640;23.310;2023-04-02T06:38:32;93106.25;;;11.02;68.13
11682;BME280;5897;42.640;23.310;2023-04-02T06:41:04;93106.44;;;11.07;68.77
11682;BME280;5897;42.640;23.310;2023-04-02T06:43:34;93111.84;;;11.34;67.28
11682;BME280;5897;42.640;23.310;2023-04-02T06:46:06;93108.53;;;11.21;67.91
11682;BME280;5897;42.640;23.310;2023-04-02T06:48:36;93122.69;;;11.43;67.59
11682;BME280;5897;42.640;23.310;2023-04-02T06:51:06;93121.16;;;11.51;66.37
11682;BME280;5897;42.640;23.310;2023-04-02T06:53:36;93123.47;;;11.80;64.93
11682;BME280;5897;42.640;23.310;2023-04-02T06:56:11;93114.91;;;11.63;63.24
11682;BME280;5897;42.640;23.310;2023-04-02T06:58:39;93121.47;;;11.98;61.09
11682;BME280;5897;42.640;23.310;2023-04-02T07:01:06;93122.78;;;12.20;60.86
11682;BME280;5897;42.640;23.310;2023-04-02T07:03:33;93131.34;;;12.28;59.85
11682;BME280;5897;42.640;23.310;2023-04-02T07:06:01;93130.94;;;12.53;58.49
11682;BME280;5897;42.640;23.310;2023-04-02T07:08:28;93133.91;;;12.73;60.10
11682;BME280;5897;42.640;23.310;2023-04-02T07:10:56;93130.41;;;12.72;57.92
11682;BME280;5897;42.640;23.310;2023-04-02T07:13:23;93133.22;;;12.87;58.13
11682;BME280;5897;42.640;23.310;2023-04-02T07:15:52;93138.88;;;13.07;58.20
11682;BME280;5897;42.640;23.310;2023-04-02T07:18:25;93140.28;;;12.93;54.82
11682;BME280;5897;42.640;23.310;2023-04-02T07:20:53;93141.06;;;12.85;55.56
11682;BME280;5897;42.640;23.310;2023-04-02T07:23:21;93150.19;;;13.05;52.77
11682;BME280;5897;42.640;23.310;2023-04-02T07:25:48;93146.16;;;12.92;50.94
11682;BME280;5897;42.640;23.310;2023-04-02T07:28:16;93141.66;;;12.89;51.72
11682;BME280;5897;42.640;23.310;2023-04-02T07:30:44;93145.00;;;12.84;50.59
11682;BME280;5897;42.640;23.310;2023-04-02T07:33:12;93150.94;;;13.06;52.83
11682;BME280;5897;42.640;23.310;2023-04-02T07:35:39;93138.75;;;13.25;50.64
11682;BME280;5897;42.640;23.310;2023-04-02T07:38:06;93147.13;;;13.36;51.95
11682;BME280;5897;42.640;23.310;2023-04-02T07:40:33;93146.47;;;13.64;49.94
11682;BME280;5897;42.640;23.310;2023-04-02T07:43:00;93150.03;;;13.70;48.83
11682;BME280;5897;42.640;23.310;2023-04-02T07:45:28;93145.78;;;13.78;50.12
11682;BME280;5897;42.640;23.310;2023-04-02T07:47:56;93160.28;;;13.90;48.43
11682;BME280;5897;42.640;23.310;2023-04-02T07:50:23;93152.00;;;13.93;48.78
11682;BME280;5897;42.640;23.310;2023-04-02T07:52:49;93138.88;;;13.92;47.37
11682;BME280;5897;42.640;23.310;2023-04-02T07:55:16;93152.47;;;14.06;47.58
11682;BME280;5897;42.640;23.310;2023-04-02T07:57:48;93146.81;;;14.19;47.55
11682;BME280;5897;42.640;23.310;2023-04-02T08:00:16;93155.03;;;14.24;46.94
11682;BME280;5897;42.640;23.310;2023-04-02T08:02:45;93138.28;;;14.26;46.02
11682;BME280;5897;42.640;23.310;2023-04-02T08:05:12;93147.56;;;14.34;45.62
11682;BME280;5897;42.640;23.310;2023-04-02T08:07:40;93159.56;;;14.42;45.24
11682;BME280;5897;42.640;23.310;2023-04-02T08:10:09;93166.31;;;14.46;43.61
11682;BME280;5897;42.640;23.310;2023-04-02T08:12:37;93140.44;;;14.22;44.56
11682;BME280;5897;42.640;23.310;2023-04-02T08:15:04;93164.63;;;14.49;46.14
11682;BME280;5897;42.640;23.310;2023-04-02T08:17:32;93171.53;;;14.79;44.93
11682;BME280;5897;42.640;23.310;2023-04-02T08:20:05;93165.16;;;14.82;46.63
11682;BME280;5897;42.640;23.310;2023-04-02T08:22:32;93152.53;;;15.13;43.29
11682;BME280;5897;42.640;23.310;2023-04-02T08:24:59;93165.19;;;15.16;45.29
11682;BME280;5897;42.640;23.310;2023-04-02T08:27:26;93163.81;;;15.41;45.55
11682;BME280;5897;42.640;23.310;2023-04-02T08:29:52;93165.56;;;15.58;44.83
11682;BME280;5897;42.640;23.310;2023-04-02T08:32:19;93161.53;;;15.74;45.05
11682;BME280;5897;42.640;23.310;2023-04-02T08:34:51;93158.78;;;15.94;44.29
11682;BME280;5897;42.640;23.310;2023-04-02T08:37:22;93158.38;;;16.01;43.41
11682;BME280;5897;42.640;23.310;2023-04-02T08:39:50;93148.34;;;16.12;43.88
11682;BME280;5897;42.640;23.310;2023-04-02T08:42:21;93158.88;;;16.25;43.86
11682;BME280;5897;42.640;23.310;2023-04-02T08:45:00;93171.47;;;15.97;41.82
11682;BME280;5897;42.640;23.310;2023-04-02T08:47:31;93173.56;;;15.67;43.72
11682;BME280;5897;42.640;23.310;2023-04-02T08:50:03;93169.59;;;16.08;43.15
11682;BME280;5897;42.640;23.310;2023-04-02T08:52:35;93174.16;;;16.17;40.30
11682;BME280;5897;42.640;23.310;2023-04-02T08:55:08;93160.25;;;16.15;40.09
11682;BME280;5897;42.640;23.310;2023-04-02T08:57:44;93156.00;;;16.34;40.14
11682;BME280;5897;42.640;23.310;2023-04-02T09:00:25;93162.88;;;16.49;39.94
11682;BME280;5897;42.640;23.310;2023-04-02T09:02:55;93167.91;;;16.56;44.89
11682;BME280;5897;42.640;23.310;2023-04-02T09:05:26;93154.63;;;17.00;41.63
11682;BME280;5897;42.640;23.310;2023-04-02T09:07:58;93161.63;;;17.07;39.53
11682;BME280;5897;42.640;23.310;2023-04-02T09:10:34;93171.56;;;16.79;37.80
11682;BME280;5897;42.640;23.310;2023-04-02T09:13:06;93164.78;;;16.18;38.15
11682;BME280;5897;42.640;23.310;2023-04-02T09:15:39;93160.31;;;16.20;38.16
11682;BME280;5897;42.640;23.310;2023-04-02T09:18:13;93161.91;;;16.07;38.04
11682;BME280;5897;42.640;23.310;2023-04-02T09:20:40;93165.16;;;16.31;37.68
11682;BME280;5897;42.640;23.310;2023-04-02T09:23:15;93160.41;;;16.82;37.92
11682;BME280;5897;42.640;23.310;2023-04-02T09:25:43;93154.13;;;17.02;36.66
11682;BME280;5897;42.640;23.310;2023-04-02T09:28:10;93143.34;;;17.18;36.77
11682;BME280;5897;42.640;23.310;2023-04-02T09:30:48;93155.97;;;17.16;35.62
11682;BME280;5897;42.640;23.310;2023-04-02T09:33:39;93160.44;;;17.19;37.43
11682;BME280;5897;42.640;23.310;2023-04-02T09:36:16;93151.00;;;17.51;35.88
11682;BME280;5897;42.640;23.310;2023-04-02T09:38:56;93149.75;;;17.52;36.88
11682;BME280;5897;42.640;23.310;2023-04-02T09:41:26;93151.13;;;17.73;37.63
11682;BME280;5897;42.640;23.310;2023-04-02T09:44:11;93149.06;;;17.26;35.84
11682;BME280;5897;42.640;23.310;2023-04-02T09:46:46;93145.72;;;17.42;37.32
11682;BME280;5897;42.640;23.310;2023-04-02T09:49:15;93142.88;;;17.67;34.42
11682;BME280;5897;42.640;23.310;2023-04-02T09:51:43;93136.47;;;17.76;35.94
11682;BME280;5897;42.640;23.310;2023-04-02T09:54:14;93128.16;;;17.48;35.85
11682;BME280;5897;42.640;23.310;2023-04-02T09:57:00;93137.13;;;17.18;34.37
11682;BME280;5897;42.640;23.310;2023-04-02T09:59:27;93129.56;;;16.40;36.52
11682;BME280;5897;42.640;23.310;2023-04-02T10:01:58;93137.91;;;16.11;36.75
11682;BME280;5897;42.640;23.310;2023-04-02T10:04:34;93139.47;;;16.17;36.57
11682;BME280;5897;42.640;23.310;2023-04-02T10:07:04;93111.06;;;16.24;36.98
11682;BME280;5897;42.640;23.310;2023-04-02T10:09:34;93145.59;;;16.32;36.73
11682;BME280;5897;42.640;23.310;2023-04-02T10:12:04;93137.13;;;16.30;36.91
11682;BME280;5897;42.640;23.310;2023-04-02T10:14:34;93128.88;;;16.45;36.60
11682;BME280;5897;42.640;23.310;2023-04-02T10:17:08;93120.44;;;16.74;36.04
11682;BME280;5897;42.640;23.310;2023-04-02T10:19:39;93122.16;;;17.08;35.77
11682;BME280;5897;42.640;23.310;2023-04-02T10:22:11;93120.44;;;17.41;35.00
11682;BME280;5897;42.640;23.310;2023-04-02T10:24:40;93115.28;;;17.54;35.09
11682;BME280;5897;42.640;23.310;2023-04-02T10:27:15;93120.63;;;17.91;35.87
11682;BME280;5897;42.640;23.310;2023-04-02T10:29:54;93123.47;;;18.24;33.72
11682;BME280;5897;42.640;23.310;2023-04-02T10:32:30;93120.06;;;18.62;35.12
11682;BME280;5897;42.640;23.310;2023-04-02T10:35:02;93129.28;;;18.81;33.19
11682;BME280;5897;42.640;23.310;2023-04-02T10:37:58;93120.09;;;18.67;32.62
11682;BME280;5897;42.640;23.310;2023-04-02T10:40:34;93128.28;;;19.00;32.87
11682;BME280;5897;42.640;23.310;2023-04-02T10:43:27;93124.28;;;18.96;34.32
11682;BME280;5897;42.640;23.310;2023-04-02T10:45:59;93094.66;;;19.33;33.85
11682;BME280;5897;42.640;23.310;2023-04-02T10:48:32;93111.84;;;20.01;32.84
11682;BME280;5897;42.640;23.310;2023-04-02T10:51:06;93114.84;;;20.09;30.91
11682;BME280;5897;42.640;23.310;2023-04-02T10:53:44;93106.00;;;20.67;29.94
11682;BME280;5897;42.640;23.310;2023-04-02T10:56:16;93107.47;;;20.39;30.41
11682;BME280;5897;42.640;23.310;2023-04-02T10:58:51;93103.41;;;20.51;29.56
11682;BME280;5897;42.640;23.310;2023-04-02T11:01:23;93101.19;;;20.79;30.52
11682;BME280;5897;42.640;23.310;2023-04-02T11:03:54;93098.09;;;21.23;30.54
11682;BME280;5897;42.640;23.310;2023-04-02T11:06:27;93102.38;;;20.54;32.11
11682;BME280;5897;42.640;23.310;2023-04-02T11:08:59;93099.25;;;20.39;32.16
11682;BME280;5897;42.640;23.310;2023-04-02T11:11:31;93112.22;;;20.33;32.75
11682;BME280;5897;42.640;23.310;2023-04-02T11:14:04;93095.03;;;20.27;32.04
11682;BME280;5897;42.640;23.310;2023-04-02T11:16:37;93105.63;;;20.06;32.70
11682;BME280;5897;42.640;23.310;2023-04-02T11:21:50;93101.78;;;19.69;34.33
11682;BME280;5897;42.640;23.310;2023-04-02T11:24:25;93104.56;;;19.52;35.04
11682;BME280;5897;42.640;23.310;2023-04-02T11:27:15;93104.56;;;19.52;35.28
11682;BME280;5897;42.640;23.310;2023-04-02T11:29:43;93105.59;;;19.44;34.57
11682;BME280;5897;42.640;23.310;2023-04-02T11:32:14;93101.38;;;19.43;34.68
11682;BME280;5897;42.640;23.310;2023-04-02T11:37:50;93092.03;;;19.79;33.78
11682;BME280;5897;42.640;23.310;2023-04-02T11:40:41;93089.47;;;19.97;33.96
11682;BME280;5897;42.640;23.310;2023-04-02T11:43:48;93087.94;;;20.02;33.61
11682;BME280;5897;42.640;23.310;2023-04-02T11:46:43;93093.38;;;20.13;33.68
11682;BME280;5897;42.640;23.310;2023-04-02T11:49:32;93087.31;;;19.74;33.13
11682;BME280;5897;42.640;23.310;2023-04-02T11:51:59;93083.59;;;19.71;34.36
11682;BME280;5897;42.640;23.310;2023-04-02T11:54:29;93086.69;;;20.03;33.11
11682;BME280;5897;42.640;23.310;2023-04-02T11:57:06;93085.28;;;19.85;32.92
11682;BME280;5897;42.640;23.310;2023-04-02T11:59:42;93079.84;;;19.74;32.88
11682;BME280;5897;42.640;23.310;2023-04-02T12:02:18;93084.75;;;19.87;34.14
11682;BME280;5897;42.640;23.310;2023-04-02T12:05:00;93078.91;;;20.18;31.98
11682;BME280;5897;42.640;23.310;2023-04-02T12:07:51;93079.25;;;20.79;32.35
11682;BME280;5897;42.640;23.310;2023-04-02T12:10:24;93078.28;;;21.54;31.40
11682;BME280;5897;42.640;23.310;2023-04-02T12:12:53;93082.03;;;21.80;29.28
11682;BME280;5897;42.640;23.310;2023-04-02T12:15:39;93071.34;;;22.14;30.17
11682;BME280;5897;42.640;23.310;2023-04-02T12:18:16;93070.72;;;21.60;29.43
11682;BME280;5897;42.640;23.310;2023-04-02T12:20:46;93087.06;;;21.28;30.02
11682;BME280;5897;42.640;23.310;2023-04-02T12:23:18;93074.72;;;21.11;30.67
11682;BME280;5897;42.640;23.310;2023-04-02T12:25:53;93077.84;;;21.26;29.73
11682;BME280;5897;42.640;23.310;2023-04-02T12:28:21;93082.88;;;20.92;31.11
11682;BME280;5897;42.640;23.310;2023-04-02T12:31:01;93084.44;;;20.01;31.84
11682;BME280;5897;42.640;23.310;2023-04-02T12:33:31;93088.66;;;20.13;31.86
11682;BME280;5897;42.640;23.310;2023-04-02T12:36:03;93071.31;;;20.70;31.87
11682;BME280;5897;42.640;23.310;2023-04-02T12:38:33;93073.91;;;20.92;31.23
11682;BME280;5897;42.640;23.310;2023-04-02T12:41:02;93069.34;;;21.24;30.77
11682;BME280;5897;42.640;23.310;2023-04-02T12:43:31;93068.41;;;20.92;30.26
11682;BME280;5897;42.640;23.310;2023-04-02T12:46:01;93072.16;;;21.18;30.64
11682;BME280;5897;42.640;23.310;2023-04-02T12:48:29;93061.63;;;21.70;29.75
11682;BME280;5897;42.640;23.310;2023-04-02T12:50:56;93062.34;;;22.13;28.65
11682;BME280;5897;42.640;23.310;2023-04-02T12:53:33;93046.72;;;22.40;27.99
11682;BME280;5897;42.640;23.310;2023-04-02T12:56:01;93063.09;;;22.51;28.08
11682;BME280;5897;42.640;23.310;2023-04-02T12:58:31;93062.38;;;21.71;28.45
11682;BME280;5897;42.640;23.310;2023-04-02T13:01:17;93052.34;;;21.49;29.02
11682;BME280;5897;42.640;23.310;2023-04-02T13:03:58;93050.13;;;21.00;29.71
11682;BME280;5897;42.640;23.310;2023-04-02T13:06:25;93048.50;;;21.58;29.61
11682;BME280;5897;42.640;23.310;2023-04-02T13:08:53;93048.50;;;22.00;28.82
11682;BME280;5897;42.640;23.310;2023-04-02T13:11:20;93047.59;;;21.74;28.32
11682;BME280;5897;42.640;23.310;2023-04-02T13:13:48;93058.16;;;21.70;28.79
11682;BME280;5897;42.640;23.310;2023-04-02T13:16:28;93046.72;;;22.40;28.38
11682;BME280;5897;42.640;23.310;2023-04-02T13:19:20;93050.06;;;22.33;27.67
11682;BME280;5897;42.640;23.310;2023-04-02T13:21:48;93041.91;;;21.90;28.18
11682;BME280;5897;42.640;23.310;2023-04-02T13:24:17;93050.44;;;21.63;28.38
11682;BME280;5897;42.640;23.310;2023-04-02T13:26:45;93053.31;;;21.52;28.63
11682;BME280;5897;42.640;23.310;2023-04-02T13:29:24;93053.81;;;21.08;29.12
11682;BME280;5897;42.640;23.310;2023-04-02T13:31:54;93045.94;;;20.93;29.17
11682;BME280;5897;42.640;23.310;2023-04-02T13:34:21;93045.94;;;20.88;nan
11682;BME280;5897;42.640;23.310;2023-04-02T13:36:48;93051.72;;;20.84;28.78
11682;BME280;5897;42.640;23.310;2023-04-02T13:39:15;93057.34;;;21.27;29.00
11682;BME280;5897;42.640;23.310;2023-04-02T13:41:44;93051.63;;;21.25;28.73